createdAt,value
2022-12-14T00:01:58.908Z,3.83
2022-12-14T00:04:26.908Z,4.30
2022-12-14T00:06:56.250Z,3.53
2022-12-14T00:09:24.447Z,4.03
2022-12-14T00:11:52.475Z,3.87
2022-12-14T00:14:20.503Z,4.37
2022-12-14T00:16:48.488Z,4.40
2022-12-14T00:19:17.065Z,4.00
2022-12-14T00:21:45.972Z,3.50
2022-12-14T00:24:15.305Z,4.17
2022-12-14T00:26:43.460Z,3.70
2022-12-14T00:29:11.708Z,3.47
2022-12-14T00:31:39.745Z,3.73
2022-12-14T00:34:07.745Z,4.50
2022-12-14T00:36:37.583Z,4.60
2022-12-14T00:39:06.298Z,3.80
2022-12-14T00:41:35.632Z,4.63
2022-12-14T00:44:03.851Z,3.80
2022-12-14T00:46:31.977Z,3.30
2022-12-14T00:48:59.981Z,3.90
2022-12-14T00:51:28.014Z,3.80
2022-12-14T00:53:55.999Z,4.30
2022-12-14T00:56:25.957Z,4.33
2022-12-14T00:58:55.674Z,4.37
2022-12-14T01:01:23.898Z,4.20
2022-12-14T01:04:12.359Z,3.73
2022-12-14T01:06:40.419Z,4.03
2022-12-14T01:09:08.566Z,4.33
2022-12-14T01:11:36.740Z,4.17
2022-12-14T01:14:06.718Z,4.10
2022-12-14T01:16:35.222Z,3.87
2022-12-14T01:19:03.524Z,5.73
2022-12-14T01:21:31.631Z,4.07
2022-12-14T01:24:02.235Z,3.87
2022-12-14T01:26:34.921Z,3.87
2022-12-14T01:29:04.924Z,4.40
2022-12-14T01:31:38.063Z,3.50
2022-12-14T01:34:06.252Z,4.00
2022-12-14T01:36:36.580Z,4.07
2022-12-14T01:39:09.433Z,3.33
2022-12-14T01:41:40.021Z,3.80
2022-12-14T01:44:57.569Z,4.47
2022-12-14T01:47:34.206Z,4.40
2022-12-14T01:50:10.630Z,4.17
2022-12-14T01:52:42.787Z,4.00
2022-12-14T01:55:15.856Z,3.93
2022-12-14T01:57:49.328Z,4.17
2022-12-14T02:00:18.862Z,4.00
2022-12-14T02:02:52.610Z,4.03
2022-12-14T02:05:23.923Z,4.67
2022-12-14T02:07:55.056Z,4.17
2022-12-14T02:10:26.180Z,4.03
2022-12-14T02:13:01.879Z,4.53
2022-12-14T02:15:32.823Z,3.90
2022-12-14T02:18:02.626Z,3.97
2022-12-14T02:20:41.095Z,3.67
2022-12-14T02:24:03.662Z,3.77
2022-12-14T02:27:05.532Z,4.27
2022-12-14T02:30:04.544Z,4.13
2022-12-14T02:32:54.463Z,3.77
2022-12-14T02:35:39.818Z,2.97
2022-12-14T02:38:22.503Z,4.30
2022-12-14T02:41:02.850Z,4.27
2022-12-14T02:43:35.354Z,4.73
2022-12-14T02:46:17.022Z,3.77
2022-12-14T02:48:52.324Z,4.07
2022-12-14T02:51:29.440Z,3.70
2022-12-14T02:54:04.696Z,3.80
2022-12-14T02:56:38.427Z,4.03
2022-12-14T02:59:10.095Z,3.57
2022-12-14T03:01:41.190Z,3.27
2022-12-14T03:04:09.408Z,4.13
2022-12-14T03:06:37.635Z,3.03
2022-12-14T03:09:18.416Z,4.37
2022-12-14T03:11:55.183Z,3.50
2022-12-14T03:14:28.306Z,3.20
2022-12-14T03:17:02.084Z,4.07
2022-12-14T03:19:35.349Z,4.10
2022-12-14T03:22:09.404Z,3.67
2022-12-14T03:24:44.496Z,3.93
2022-12-14T03:27:19.547Z,3.77
2022-12-14T03:29:51.155Z,3.37
2022-12-14T03:32:23.936Z,4.73
2022-12-14T03:34:57.284Z,3.10
2022-12-14T03:37:33.557Z,3.13
2022-12-14T03:40:01.826Z,3.50
2022-12-14T03:42:37.281Z,4.27
2022-12-14T03:45:15.313Z,4.13
2022-12-14T03:48:07.804Z,4.47
2022-12-14T03:50:42.044Z,4.60
2022-12-14T03:53:14.007Z,4.20
2022-12-14T03:55:53.091Z,3.53
2022-12-14T03:58:34.944Z,5.30
2022-12-14T04:01:09.508Z,3.57
2022-12-14T04:03:48.817Z,2.70
2022-12-14T04:06:28.980Z,4.13
2022-12-14T04:09:08.400Z,4.03
2022-12-14T04:11:59.739Z,3.60
2022-12-14T04:14:51.408Z,3.37
2022-12-14T04:17:45.012Z,4.30
2022-12-14T04:20:20.638Z,3.70
2022-12-14T04:22:54.301Z,4.20
2022-12-14T04:25:44.154Z,3.83
2022-12-14T04:28:30.120Z,3.80
2022-12-14T04:31:02.385Z,3.83
2022-12-14T04:33:49.414Z,4.43
2022-12-14T04:36:28.155Z,4.33
2022-12-14T04:38:59.955Z,3.10
2022-12-14T04:41:33.193Z,3.63
2022-12-14T04:44:06.610Z,4.43
2022-12-14T04:46:40.795Z,3.90
2022-12-14T04:49:19.520Z,4.57
2022-12-14T04:51:54.178Z,3.73
2022-12-14T04:54:28.367Z,4.30
2022-12-14T04:57:03.720Z,4.20
2022-12-14T04:59:32.086Z,3.50
2022-12-14T05:02:09.505Z,3.83
2022-12-14T05:04:54.974Z,3.70
2022-12-14T05:07:36.960Z,4.00
2022-12-14T05:10:11.598Z,3.50
2022-12-14T05:12:44.509Z,3.60
2022-12-14T05:15:17.628Z,4.80
2022-12-14T05:17:46.348Z,3.57
2022-12-14T05:20:16.247Z,4.00
2022-12-14T05:22:45.893Z,4.60
2022-12-14T05:25:14.122Z,4.17
2022-12-14T05:27:42.120Z,4.73
2022-12-14T05:30:12.220Z,6.80
2022-12-14T05:32:40.583Z,6.00
2022-12-14T05:35:11.400Z,5.23
2022-12-14T05:37:39.372Z,5.23
2022-12-14T05:40:10.608Z,5.20
2022-12-14T05:42:46.096Z,4.67
2022-12-14T05:45:16.212Z,5.00
2022-12-14T05:47:44.173Z,4.33
2022-12-14T05:50:12.152Z,5.30
2022-12-14T05:52:40.125Z,5.40
2022-12-14T05:55:12.711Z,4.00
2022-12-14T05:57:40.706Z,4.70
2022-12-14T06:00:11.686Z,4.37
2022-12-14T06:02:39.685Z,4.80
2022-12-14T06:05:08.379Z,4.33
2022-12-14T06:07:36.371Z,4.93
2022-12-14T06:10:04.828Z,4.93
2022-12-14T06:12:34.219Z,5.70
2022-12-14T06:15:02.251Z,4.53
2022-12-14T06:17:30.280Z,4.37
2022-12-14T06:20:00.354Z,4.40
2022-12-14T06:22:28.620Z,5.30
2022-12-14T06:24:56.623Z,5.60
2022-12-14T06:27:24.600Z,4.60
2022-12-14T06:29:53.998Z,5.50
2022-12-14T06:32:22.069Z,4.63
2022-12-14T06:34:50.090Z,5.87
2022-12-14T06:37:18.140Z,4.70
2022-12-14T06:39:49.725Z,5.40
2022-12-14T06:42:22.062Z,5.50
2022-12-14T06:44:52.220Z,5.13
2022-12-14T06:47:21.556Z,4.70
2022-12-14T06:49:51.415Z,5.30
2022-12-14T06:52:25.012Z,5.07
2022-12-14T06:54:55.447Z,5.50
2022-12-14T06:57:23.487Z,5.97
2022-12-14T06:59:51.460Z,4.70
2022-12-14T07:02:21.181Z,4.93
2022-12-14T07:04:49.320Z,5.17
2022-12-14T07:07:17.522Z,5.80
2022-12-14T07:09:45.574Z,5.00
2022-12-14T07:12:14.489Z,5.70
2022-12-14T07:14:42.502Z,5.10
2022-12-14T07:17:10.536Z,4.90
2022-12-14T07:19:44.113Z,4.90
2022-12-14T07:22:17.095Z,4.77
2022-12-14T07:24:45.126Z,5.67
2022-12-14T07:27:13.305Z,4.30
2022-12-14T07:29:41.296Z,5.27
2022-12-14T07:32:09.262Z,6.13
2022-12-14T07:34:38.659Z,5.00
2022-12-14T07:37:06.602Z,5.20
2022-12-14T07:39:34.648Z,5.97
2022-12-14T07:42:05.195Z,5.60
2022-12-14T07:44:33.242Z,6.10
2022-12-14T07:47:01.368Z,5.83
2022-12-14T07:49:29.406Z,6.50
2022-12-14T07:51:58.785Z,6.07
2022-12-14T07:54:27.027Z,5.80
2022-12-14T07:56:57.839Z,5.13
2022-12-14T07:59:25.850Z,6.60
2022-12-14T08:01:55.678Z,6.80
2022-12-14T08:04:23.877Z,5.97
2022-12-14T08:06:51.927Z,5.60
2022-12-14T08:09:21.324Z,5.80
2022-12-14T08:11:49.289Z,6.53
2022-12-14T08:14:20.021Z,6.97
2022-12-14T08:16:49.980Z,5.67
2022-12-14T08:19:19.262Z,6.07
2022-12-14T08:21:47.392Z,7.13
2022-12-14T08:24:17.713Z,6.73
2022-12-14T08:26:49.338Z,6.43
2022-12-14T08:29:18.856Z,6.27
2022-12-14T08:31:47.052Z,5.57
2022-12-14T08:34:15.787Z,7.40
2022-12-14T08:36:43.774Z,7.83
2022-12-14T08:39:13.237Z,6.43
2022-12-14T08:41:41.193Z,6.97
2022-12-14T08:44:12.965Z,6.73
2022-12-14T08:46:42.388Z,6.83
2022-12-14T08:49:14.142Z,6.50
2022-12-14T08:51:42.153Z,6.83
2022-12-14T08:54:10.188Z,5.93
2022-12-14T08:56:38.820Z,6.70
2022-12-14T08:59:06.811Z,6.93
2022-12-14T09:01:36.358Z,6.90
2022-12-14T09:04:07.633Z,7.17
2022-12-14T09:06:38.746Z,7.40
2022-12-14T09:09:15.210Z,6.90
2022-12-14T09:11:44.052Z,8.23
2022-12-14T09:14:12.417Z,6.40
2022-12-14T09:16:42.498Z,6.40
2022-12-14T09:19:10.553Z,6.93
2022-12-14T09:21:39.696Z,7.70
2022-12-14T09:24:07.975Z,6.10
2022-12-14T09:26:37.651Z,6.90
2022-12-14T09:29:05.668Z,5.97
2022-12-14T09:31:36.225Z,8.27
2022-12-14T09:34:05.718Z,9.00
2022-12-14T09:36:34.564Z,7.27
2022-12-14T09:39:03.079Z,6.27
2022-12-14T09:41:57.691Z,6.17
2022-12-14T09:44:41.436Z,6.00
2022-12-14T09:47:14.841Z,5.33
2022-12-14T09:49:49.251Z,6.37
2022-12-14T09:52:21.999Z,7.67
2022-12-14T09:54:52.359Z,6.27
2022-12-14T09:57:29.968Z,6.10
2022-12-14T09:59:58.284Z,6.50
2022-12-14T10:02:44.419Z,6.27
2022-12-14T10:05:43.224Z,5.47
2022-12-14T10:08:18.847Z,6.83
2022-12-14T10:10:59.163Z,6.73
2022-12-14T10:13:43.174Z,6.30
2022-12-14T10:16:24.168Z,6.80
2022-12-14T10:19:15.613Z,6.20
2022-12-14T10:21:49.975Z,6.43
2022-12-14T10:24:24.608Z,5.40
2022-12-14T10:26:55.609Z,5.30
2022-12-14T10:29:35.016Z,6.20
2022-12-14T10:32:20.906Z,5.97
2022-12-14T10:34:49.667Z,5.80
2022-12-14T10:37:27.794Z,6.40
2022-12-14T10:40:15.595Z,6.70
2022-12-14T10:43:04.318Z,5.97
2022-12-14T10:45:42.979Z,5.13
2022-12-14T10:48:43.110Z,7.20
2022-12-14T10:51:17.001Z,5.60
2022-12-14T10:53:51.365Z,6.53
2022-12-14T10:56:24.514Z,6.00
2022-12-14T10:59:40.308Z,6.87
2022-12-14T11:02:18.687Z,6.40
2022-12-14T11:04:51.703Z,7.27
2022-12-14T11:07:23.305Z,6.17
2022-12-14T11:09:53.033Z,6.40
2022-12-14T11:12:25.848Z,5.20
2022-12-14T11:14:57.982Z,4.77
2022-12-14T11:17:36.669Z,6.17
2022-12-14T11:20:19.586Z,6.93
2022-12-14T11:22:51.544Z,5.93
2022-12-14T11:25:36.124Z,7.03
2022-12-14T11:28:18.069Z,6.20
2022-12-14T11:30:57.567Z,6.73
2022-12-14T11:33:34.097Z,5.50
2022-12-14T11:36:08.054Z,5.80
2022-12-14T11:38:36.888Z,8.33
2022-12-14T11:41:11.334Z,5.77
2022-12-14T11:43:41.033Z,5.97
2022-12-14T11:46:09.279Z,6.30
2022-12-14T11:48:39.221Z,5.83
2022-12-14T11:51:12.540Z,6.87
2022-12-14T11:53:41.384Z,7.10
2022-12-14T11:56:16.873Z,5.37
2022-12-14T11:58:51.690Z,6.13
2022-12-14T12:01:25.376Z,6.07
2022-12-14T12:03:59.371Z,6.57
2022-12-14T12:06:30.667Z,5.63
2022-12-14T12:09:01.441Z,5.80
2022-12-14T12:11:34.135Z,6.77
2022-12-14T12:14:21.268Z,6.50
2022-12-14T12:16:49.491Z,7.07
2022-12-14T12:47:22.701Z,6.57
2022-12-14T12:49:44.708Z,6.07
2022-12-14T12:52:21.572Z,6.20
2022-12-14T12:54:58.911Z,5.67
2022-12-14T12:57:33.274Z,5.73
2022-12-14T13:00:10.289Z,6.27
2022-12-14T13:02:46.415Z,6.00
2022-12-14T13:16:56.358Z,4.93
2022-12-14T13:19:52.360Z,6.10
2022-12-14T13:22:28.646Z,5.60
2022-12-14T13:25:00.050Z,4.60
2022-12-14T13:28:01.453Z,5.03
2022-12-14T13:30:54.604Z,5.07
2022-12-14T13:34:08.158Z,6.60
2022-12-14T13:37:10.388Z,6.07
2022-12-14T13:40:20.659Z,7.10
2022-12-14T13:43:00.885Z,5.87
2022-12-14T13:45:33.547Z,6.00
2022-12-14T13:48:01.807Z,5.77
2022-12-14T13:50:37.645Z,6.43
2022-12-14T13:53:17.881Z,5.73
2022-12-14T13:55:52.864Z,5.70
2022-12-14T13:58:25.452Z,7.07
2022-12-14T14:00:58.608Z,5.77
2022-12-14T14:03:53.922Z,5.10
2022-12-14T14:06:40.047Z,5.30
2022-12-14T14:10:01.874Z,6.43
2022-12-14T14:12:44.203Z,6.53
2022-12-14T14:16:26.268Z,6.80
2022-12-14T14:18:48.965Z,5.03
2022-12-14T14:21:42.759Z,6.07
2022-12-14T14:24:23.687Z,7.70
2022-12-14T14:27:12.154Z,6.40
2022-12-14T14:29:47.539Z,5.63
2022-12-14T14:32:54.006Z,6.33
2022-12-14T14:35:28.639Z,7.80
2022-12-14T14:37:59.561Z,7.97
2022-12-14T14:40:58.267Z,8.07
2022-12-14T14:43:28.865Z,5.53
2022-12-14T14:46:00.084Z,6.17
2022-12-14T14:48:35.136Z,7.20
2022-12-14T14:51:17.972Z,6.70
2022-12-14T14:53:46.545Z,6.00
2022-12-14T14:56:37.367Z,7.37
2022-12-14T14:59:52.742Z,6.47
2022-12-14T15:02:31.155Z,5.67
2022-12-14T15:05:17.608Z,7.57
2022-12-14T15:07:48.396Z,12.00
2022-12-14T15:10:27.859Z,7.30
2022-12-14T15:13:01.434Z,5.90
2022-12-14T15:15:38.105Z,7.17
2022-12-14T15:18:23.779Z,8.03
2022-12-14T15:20:58.822Z,6.80
2022-12-14T15:23:35.283Z,8.00
2022-12-14T15:26:09.170Z,7.10
2022-12-14T15:28:43.351Z,5.83
2022-12-14T15:31:12.779Z,5.70
2022-12-14T15:33:44.746Z,5.17
2022-12-14T15:36:17.307Z,5.87
2022-12-14T15:38:53.995Z,7.50
2022-12-14T15:41:24.900Z,6.80
2022-12-14T15:43:59.747Z,5.13
2022-12-14T15:46:33.189Z,4.43
2022-12-14T15:49:04.050Z,6.23
2022-12-14T15:51:34.896Z,6.07
2022-12-14T15:54:05.158Z,5.10
2022-12-14T15:56:36.765Z,6.53
2022-12-14T15:59:14.887Z,5.70
2022-12-14T16:01:53.601Z,6.93
2022-12-14T16:04:25.708Z,5.47
2022-12-14T16:07:06.253Z,4.77
2022-12-14T16:09:41.811Z,6.00
2022-12-14T16:12:19.295Z,5.77
2022-12-14T16:14:54.067Z,5.57
2022-12-14T16:17:28.919Z,5.10
2022-12-14T16:20:00.766Z,4.70
2022-12-14T16:22:31.817Z,5.40
2022-12-14T16:25:12.268Z,5.10
2022-12-14T16:27:42.627Z,5.90
2022-12-14T16:30:25.193Z,5.00
2022-12-14T16:33:08.672Z,5.50
2022-12-14T16:35:39.017Z,5.13
2022-12-14T16:38:11.889Z,5.53
2022-12-14T16:40:43.126Z,6.00
2022-12-14T16:43:32.070Z,6.13
2022-12-14T16:46:19.293Z,5.07
2022-12-14T16:49:23.299Z,5.50
2022-12-14T16:52:08.732Z,5.43
2022-12-14T16:54:38.801Z,4.93
2022-12-14T16:57:19.170Z,4.83
2022-12-14T16:59:48.917Z,6.03
2022-12-14T17:02:30.985Z,4.47
2022-12-14T17:05:04.103Z,5.43
2022-12-14T17:07:34.089Z,5.73
2022-12-14T17:10:02.149Z,5.17
2022-12-14T17:12:30.242Z,4.50
2022-12-14T17:15:01.028Z,4.87
2022-12-14T17:17:34.900Z,4.57
2022-12-14T17:20:13.645Z,4.77
2022-12-14T17:22:43.618Z,4.60
2022-12-14T17:25:18.064Z,4.90
2022-12-14T17:27:46.141Z,4.87
2022-12-14T17:30:17.740Z,5.30
2022-12-14T17:32:46.753Z,4.57
2022-12-14T17:35:26.327Z,4.50
2022-12-14T17:37:55.189Z,5.40
2022-12-14T17:40:23.591Z,4.40
2022-12-14T17:42:55.280Z,6.10
2022-12-14T17:45:26.200Z,5.63
2022-12-14T17:47:55.441Z,5.03
2022-12-14T17:50:25.943Z,4.70
2022-12-14T17:52:54.082Z,5.87
2022-12-14T17:55:25.937Z,5.70
2022-12-14T17:57:54.698Z,5.10
2022-12-14T18:00:43.364Z,6.23
2022-12-14T18:03:13.277Z,4.20
2022-12-14T18:05:48.557Z,4.80
2022-12-14T18:08:17.674Z,5.10
2022-12-14T18:10:46.476Z,5.17
2022-12-14T18:13:15.449Z,5.60
2022-12-14T18:15:49.744Z,4.73
2022-12-14T18:18:18.735Z,5.30
2022-12-14T18:20:52.058Z,7.27
2022-12-14T18:23:21.078Z,5.70
2022-12-14T18:25:51.158Z,5.90
2022-12-14T18:28:21.661Z,5.40
2022-12-14T18:30:53.341Z,5.90
2022-12-14T18:33:24.343Z,5.60
2022-12-14T18:35:56.748Z,5.33
2022-12-14T18:38:25.798Z,5.63
2022-12-14T18:40:56.868Z,5.83
2022-12-14T18:43:28.487Z,5.60
2022-12-14T18:45:57.586Z,5.67
2022-12-14T18:48:26.555Z,4.50
2022-12-14T18:50:58.017Z,6.57
2022-12-14T18:53:29.328Z,4.50
2022-12-14T18:55:57.900Z,4.20
2022-12-14T18:58:28.257Z,6.27
2022-12-14T19:00:58.874Z,6.80
2022-12-14T19:03:29.277Z,6.10
2022-12-14T19:06:34.971Z,5.60
2022-12-14T19:08:54.619Z,5.37
2022-12-14T19:11:31.648Z,4.93
2022-12-14T19:14:00.855Z,5.00
2022-12-14T19:16:29.096Z,5.53
2022-12-14T19:18:57.373Z,5.77
2022-12-14T19:21:27.865Z,5.40
2022-12-14T19:23:56.171Z,5.70
2022-12-14T19:26:24.278Z,4.63
2022-12-14T19:28:52.323Z,6.07
2022-12-14T19:31:20.425Z,5.60
2022-12-14T19:33:48.484Z,6.10
2022-12-14T19:36:16.528Z,8.50
2022-12-14T19:38:49.080Z,7.20
2022-12-14T19:41:20.440Z,6.70
2022-12-14T19:43:49.580Z,6.13
2022-12-14T19:46:19.454Z,5.27
2022-12-14T19:48:47.912Z,6.70
2022-12-14T19:51:16.737Z,6.33
2022-12-14T19:53:47.232Z,6.13
2022-12-14T19:56:18.162Z,5.63
2022-12-14T19:58:51.010Z,5.87
2022-12-14T20:01:19.165Z,5.50
2022-12-14T20:03:49.116Z,6.80
2022-12-14T20:06:17.365Z,5.83
2022-12-14T20:08:49.651Z,4.87
2022-12-14T20:11:18.562Z,5.60
2022-12-14T20:13:49.378Z,7.00
2022-12-14T20:16:20.968Z,6.40
2022-12-14T20:18:49.532Z,5.53
2022-12-14T20:21:22.218Z,6.30
2022-12-14T20:23:52.053Z,5.97
2022-12-14T20:26:22.413Z,6.20
2022-12-14T20:28:52.314Z,5.73
2022-12-14T20:31:22.187Z,6.33
2022-12-14T20:33:51.846Z,5.53
2022-12-14T20:36:22.042Z,5.67
2022-12-14T20:38:55.940Z,6.37
2022-12-14T20:41:24.206Z,5.93
2022-12-14T20:43:52.658Z,7.13
2022-12-14T20:46:32.618Z,5.40
2022-12-14T20:49:02.441Z,6.67
2022-12-14T20:51:32.622Z,6.10
2022-12-14T20:54:02.598Z,7.40
2022-12-14T20:56:31.101Z,6.67
2022-12-14T20:58:59.369Z,5.67
2022-12-14T21:01:29.520Z,5.83
2022-12-14T21:04:01.058Z,6.20
2022-12-14T21:06:29.732Z,8.20
2022-12-14T21:09:05.210Z,7.23
2022-12-14T21:11:54.244Z,6.43
2022-12-14T21:14:25.630Z,5.67
2022-12-14T21:16:54.075Z,6.03
2022-12-14T21:19:22.590Z,6.67
2022-12-14T21:21:53.831Z,4.63
2022-12-14T21:27:20.208Z,6.70
2022-12-14T21:29:49.898Z,6.70
2022-12-14T21:32:19.611Z,5.57
2022-12-14T21:34:48.045Z,4.67
2022-12-14T21:37:16.486Z,5.90
2022-12-14T21:39:51.975Z,6.10
2022-12-14T21:42:23.728Z,4.33
2022-12-14T21:44:54.017Z,5.87
2022-12-14T21:47:24.892Z,5.67
2022-12-14T21:49:53.575Z,6.27
2022-12-14T21:52:26.178Z,5.37
2022-12-14T21:54:54.223Z,5.70
2022-12-14T21:57:43.090Z,5.67
2022-12-14T22:00:20.617Z,4.87
2022-12-14T22:02:49.020Z,5.37
2022-12-14T22:05:17.532Z,5.37
2022-12-14T22:07:46.714Z,4.97
2022-12-14T22:10:15.979Z,4.90
2022-12-14T22:12:48.111Z,5.20
2022-12-14T22:15:16.332Z,3.47
2022-12-14T22:17:44.364Z,5.20
2022-12-14T22:20:13.975Z,5.10
2022-12-14T22:22:41.958Z,4.70
2022-12-14T22:25:11.354Z,5.67
2022-12-14T22:27:39.356Z,4.67
2022-12-14T22:30:10.095Z,4.80
2022-12-14T22:32:38.331Z,5.63
2022-12-14T22:35:09.509Z,4.77
2022-12-14T22:37:40.664Z,4.63
2022-12-14T22:40:10.460Z,4.90
2022-12-14T22:42:38.491Z,5.77
2022-12-14T22:45:09.952Z,4.90
2022-12-14T22:47:37.939Z,5.80
2022-12-14T22:50:07.662Z,5.40
2022-12-14T22:52:35.737Z,4.77
2022-12-14T22:55:03.775Z,4.90
2022-12-14T22:57:33.164Z,5.80
2022-12-14T23:00:11.357Z,5.03
2022-12-14T23:02:45.360Z,4.77
2022-12-14T23:05:16.033Z,5.57
2022-12-14T23:07:44.043Z,6.33
2022-12-14T23:10:29.763Z,4.63
2022-12-14T23:13:15.222Z,5.23
2022-12-14T23:16:00.632Z,5.60
2022-12-14T23:18:47.432Z,3.73
2022-12-14T23:21:33.299Z,3.90
2022-12-14T23:24:18.807Z,6.13
2022-12-14T23:27:09.144Z,5.87
2022-12-14T23:29:55.196Z,6.07
2022-12-14T23:32:40.748Z,5.80
2022-12-14T23:35:27.684Z,5.37
2022-12-14T23:38:13.090Z,5.40
2022-12-14T23:40:58.638Z,4.50
2022-12-14T23:43:43.953Z,5.57
2022-12-14T23:46:29.457Z,6.43
2022-12-14T23:49:16.123Z,5.07
2022-12-14T23:52:03.150Z,5.00
2022-12-14T23:54:48.686Z,5.60
2022-12-14T23:57:34.622Z,5.77
